Time;durP1;ratioP1;P1;durP2;ratioP2;P2;SDS_P1;SDS_P2;PMS_P1;PMS_P2;Temp;Humidity;BMP_temperature;BMP_pressure;BME280_temperature;BME280_humidity;BME280_pressure;Samples;Min_cycle;Max_cycle;Signal;HPM_P1;HPM_P2
2022/08/10 00:00:20;;;;;;;2.97;2.60;;;17.70;99.90;;;;;;4985162;28;20323;-77
2022/08/10 00:03:06;;;;;;;2.70;2.50;;;17.70;99.90;;;;;;5001478;28;20254;-75
2022/08/10 00:05:53;;;;;;;3.63;2.70;;;17.70;99.90;;;;;;4983579;28;20275;-77
2022/08/10 00:08:38;;;;;;;3.33;2.60;;;17.70;99.90;;;;;;4983088;28;20180;-76
2022/08/10 00:11:22;;;;;;;5.60;2.63;;;17.70;99.90;;;;;;4985410;28;20216;-75
2022/08/10 00:14:06;;;;;;;2.70;2.50;;;17.60;99.90;;;;;;4995886;28;20671;-77
2022/08/10 00:16:50;;;;;;;3.60;2.80;;;17.60;99.90;;;;;;4989928;28;20239;-77
2022/08/10 00:19:35;;;;;;;6.17;2.80;;;17.60;99.90;;;;;;5003477;28;20192;-77
2022/08/10 00:22:19;;;;;;;3.60;2.80;;;17.60;99.90;;;;;;4986034;28;20330;-76
2022/08/10 00:25:04;;;;;;;3.47;2.50;;;17.60;99.90;;;;;;4981561;28;20196;-75
2022/08/10 00:27:48;;;;;;;2.73;2.40;;;17.60;99.90;;;;;;4997620;28;20279;-73
2022/08/10 00:30:32;;;;;;;5.27;2.73;;;17.60;99.90;;;;;;4985290;28;20968;-75
2022/08/10 00:33:17;;;;;;;3.27;2.57;;;17.60;99.90;;;;;;5002221;28;20184;-76
2022/08/10 00:36:01;;;;;;;2.90;2.70;;;17.50;99.90;;;;;;4988990;28;20187;-74
2022/08/10 00:38:45;;;;;;;4.33;3.00;;;17.50;99.90;;;;;;4990657;28;20232;-75
2022/08/10 00:41:29;;;;;;;2.93;2.63;;;17.40;99.90;;;;;;4989636;28;20275;-76
2022/08/10 00:44:13;;;;;;;4.70;2.80;;;17.40;99.90;;;;;;5003094;28;20188;-75
2022/08/10 00:46:59;;;;;;;4.90;2.50;;;17.30;99.90;;;;;;4982596;28;20263;-76
2022/08/10 00:49:44;;;;;;;5.83;2.93;;;17.30;99.90;;;;;;4983415;28;20235;-75
2022/08/10 00:52:30;;;;;;;3.57;2.80;;;17.30;99.90;;;;;;5003803;28;20203;-76
2022/08/10 00:55:15;;;;;;;3.03;2.83;;;17.30;99.90;;;;;;5003707;28;20263;-76
2022/08/10 00:57:59;;;;;;;2.87;2.63;;;17.30;99.90;;;;;;4988111;28;20340;-76
2022/08/10 01:00:46;;;;;;;4.83;2.83;;;17.30;99.90;;;;;;4982981;28;20220;-76
2022/08/10 01:03:31;;;;;;;3.00;2.70;;;17.20;99.90;;;;;;4982496;28;20269;-76
2022/08/10 01:06:30;;;;;;;3.93;2.77;;;17.20;99.90;;;;;;4996186;28;20243;-75
2022/08/10 01:09:21;;;;;;;4.70;3.43;;;17.20;99.90;;;;;;4989212;28;20188;-75
2022/08/10 01:12:17;;;;;;;3.10;2.90;;;17.20;99.90;;;;;;5002472;28;20777;-77
2022/08/10 01:15:23;;;;;;;3.40;3.20;;;17.20;99.90;;;;;;5001909;28;20239;-77
2022/08/10 01:18:20;;;;;;;4.47;2.80;;;17.20;99.90;;;;;;4990425;28;20184;-74
2022/08/10 01:21:16;;;;;;;5.47;2.77;;;17.20;99.90;;;;;;4997660;28;20216;-76
2022/08/10 01:24:29;;;;;;;4.17;3.07;;;17.20;99.90;;;;;;4987995;28;20196;-76
2022/08/10 01:27:39;;;;;;;3.47;3.20;;;17.10;99.90;;;;;;4983968;28;20262;-76
2022/08/10 01:30:28;;;;;;;3.63;3.13;;;17.10;99.90;;;;;;4982243;28;20240;-74
2022/08/10 01:33:24;;;;;;;3.53;3.20;;;17.10;99.90;;;;;;4996798;28;20188;-76
2022/08/10 01:36:16;;;;;;;7.73;3.53;;;17.00;99.90;;;;;;4984065;28;20657;-74
2022/08/10 01:39:03;;;;;;;4.40;3.33;;;17.00;99.90;;;;;;4986491;28;20756;-76
2022/08/10 01:41:52;;;;;;;7.83;3.30;;;17.00;99.90;;;;;;4987275;28;20231;-75
2022/08/10 01:44:43;;;;;;;4.00;3.33;;;17.00;99.90;;;;;;4973898;28;20180;-75
2022/08/10 01:50:45;;;;;;;5.83;3.47;;;16.90;99.90;;;;;;4999821;28;20726;-75
2022/08/10 01:53:38;;;;;;;4.70;3.60;;;16.90;99.90;;;;;;4989190;28;20227;-75
2022/08/10 01:56:25;;;;;;;4.03;3.03;;;16.90;99.90;;;;;;4990722;28;20223;-75
2022/08/10 01:59:30;;;;;;;3.83;3.50;;;16.90;99.90;;;;;;4990854;28;20208;-74
2022/08/10 02:02:15;;;;;;;4.23;3.53;;;16.90;99.90;;;;;;4988419;28;20187;-75
2022/08/10 02:05:02;;;;;;;4.57;3.20;;;16.80;99.90;;;;;;4991018;28;20719;-75
2022/08/10 02:07:47;;;;;;;3.50;2.93;;;16.80;99.90;;;;;;4992019;28;20395;-75
2022/08/10 02:10:34;;;;;;;4.20;3.33;;;16.80;99.90;;;;;;4992531;28;20243;-76
2022/08/10 02:13:20;;;;;;;6.40;3.03;;;16.80;99.90;;;;;;4991012;28;20191;-76
2022/08/10 02:16:06;;;;;;;3.67;3.20;;;16.80;99.90;;;;;;4991001;28;20251;-75
2022/08/10 02:18:52;;;;;;;4.93;3.13;;;16.80;99.90;;;;;;5006707;28;20192;-75
2022/08/10 02:21:38;;;;;;;5.07;3.20;;;16.80;99.90;;;;;;5003502;28;20304;-77
2022/08/10 02:24:25;;;;;;;3.87;3.40;;;16.80;99.90;;;;;;5005226;28;20196;-75
2022/08/10 02:27:11;;;;;;;3.43;3.13;;;16.70;99.90;;;;;;5000680;28;20227;-75
2022/08/10 02:29:56;;;;;;;4.87;3.33;;;16.70;99.90;;;;;;4992617;28;20283;-75
2022/08/10 02:32:42;;;;;;;3.60;3.07;;;16.70;99.90;;;;;;5007038;28;20306;-74
2022/08/10 02:35:27;;;;;;;4.87;3.37;;;16.70;99.90;;;;;;5002538;28;20212;-74
2022/08/10 02:38:14;;;;;;;4.57;3.27;;;16.70;99.90;;;;;;5009550;28;20619;-77
2022/08/10 02:41:07;;;;;;;4.03;3.63;;;16.80;99.90;;;;;;5004531;28;20227;-75
2022/08/10 02:44:04;;;;;;;3.67;3.37;;;16.70;99.90;;;;;;4991750;28;20195;-75
2022/08/10 02:46:58;;;;;;;4.67;3.30;;;16.70;99.90;;;;;;4985687;28;20208;-74
2022/08/10 02:49:52;;;;;;;3.63;3.33;;;16.70;99.90;;;;;;4987380;28;20214;-76
2022/08/10 02:52:54;;;;;;;3.63;3.33;;;16.60;99.90;;;;;;4985749;28;20204;-77
2022/08/10 02:55:56;;;;;;;4.93;3.40;;;16.60;99.90;;;;;;4988475;28;20342;-75
2022/08/10 02:58:46;;;;;;;3.83;3.40;;;16.50;99.90;;;;;;4987900;28;20209;-75
2022/08/10 03:01:35;;;;;;;3.90;3.50;;;16.50;99.90;;;;;;5000623;28;20328;-75
2022/08/10 03:04:23;;;;;;;3.70;3.40;;;16.50;99.90;;;;;;5005512;28;20239;-76
2022/08/10 03:07:11;;;;;;;4.03;3.30;;;16.50;99.90;;;;;;4986556;28;20216;-74
2022/08/10 03:09:56;;;;;;;5.90;3.90;;;16.50;99.90;;;;;;4992438;28;20229;-74
2022/08/10 03:12:42;;;;;;;4.57;4.07;;;16.50;99.90;;;;;;5002471;28;20188;-75
2022/08/10 03:15:31;;;;;;;4.40;4.00;;;16.40;99.90;;;;;;4992271;28;20559;-75
2022/08/10 03:18:18;;;;;;;4.00;3.60;;;16.40;99.90;;;;;;5008898;28;20193;-74
2022/08/10 03:21:04;;;;;;;4.17;3.83;;;16.40;99.90;;;;;;5001947;28;20250;-76
2022/08/10 03:23:50;;;;;;;5.93;3.83;;;16.30;99.90;;;;;;4983653;28;20220;-75
2022/08/10 03:26:36;;;;;;;3.90;3.50;;;16.30;99.90;;;;;;4985687;28;20240;-75
2022/08/10 03:29:22;;;;;;;4.10;3.70;;;16.30;99.90;;;;;;4989315;28;20188;-73
2022/08/10 03:32:07;;;;;;;5.53;4.00;;;16.30;99.90;;;;;;4984593;28;20881;-75
2022/08/10 03:34:52;;;;;;;4.60;3.80;;;16.30;99.90;;;;;;4985233;28;20191;-77
2022/08/10 03:37:37;;;;;;;6.47;4.10;;;16.30;99.90;;;;;;5001591;28;20191;-75
2022/08/10 03:40:22;;;;;;;4.20;3.80;;;16.20;99.90;;;;;;4990038;28;20265;-75
2022/08/10 03:43:08;;;;;;;4.47;3.40;;;16.20;99.90;;;;;;5002593;28;20342;-75
2022/08/10 03:45:57;;;;;;;5.37;3.70;;;16.20;99.90;;;;;;4988177;28;20188;-75
2022/08/10 03:48:43;;;;;;;4.40;3.70;;;16.20;99.90;;;;;;4990015;28;20227;-74
2022/08/10 03:51:28;;;;;;;3.70;3.37;;;16.20;99.90;;;;;;5001464;28;20589;-74
2022/08/10 03:54:13;;;;;;;4.70;4.30;;;16.10;99.90;;;;;;5001443;28;20624;-76
2022/08/10 03:56:57;;;;;;;3.93;3.47;;;16.10;99.90;;;;;;4987109;28;20211;-75
2022/08/10 03:59:42;;;;;;;5.23;3.40;;;16.20;99.90;;;;;;4996445;28;20200;-75
2022/08/10 04:02:27;;;;;;;6.70;3.87;;;16.10;99.90;;;;;;4989978;28;20220;-75
2022/08/10 04:05:15;;;;;;;4.10;3.70;;;16.10;99.90;;;;;;5002015;28;20750;-75
2022/08/10 04:08:00;;;;;;;6.47;4.03;;;16.10;99.90;;;;;;5001743;28;20224;-73
2022/08/10 04:10:45;;;;;;;4.20;3.80;;;16.10;99.90;;;;;;4999124;28;20216;-73
2022/08/10 04:13:29;;;;;;;3.87;3.47;;;16.10;99.90;;;;;;4988278;28;20213;-74
2022/08/10 04:16:13;;;;;;;5.23;4.10;;;16.10;99.90;;;;;;4989347;28;20610;-74
2022/08/10 04:18:57;;;;;;;5.80;4.20;;;16.10;99.90;;;;;;4987629;28;20229;-72
2022/08/10 04:21:46;;;;;;;6.23;4.50;;;16.00;99.90;;;;;;4988530;28;20212;-74
2022/08/10 04:24:33;;;;;;;6.07;4.33;;;16.00;99.90;;;;;;4991258;28;20219;-73
2022/08/10 04:27:17;;;;;;;5.13;4.63;;;16.00;99.90;;;;;;4989572;28;20247;-74
2022/08/10 04:30:02;;;;;;;7.03;4.60;;;16.00;99.90;;;;;;5000869;28;20275;-73
2022/08/10 04:32:52;;;;;;;5.07;4.20;;;16.00;99.90;;;;;;4991213;28;20227;-75
2022/08/10 04:35:38;;;;;;;5.57;4.40;;;16.00;99.90;;;;;;4992859;28;20276;-72
2022/08/10 04:38:25;;;;;;;6.80;4.43;;;16.00;99.90;;;;;;5003591;28;20297;-74
2022/08/10 04:41:09;;;;;;;5.70;4.17;;;16.00;99.90;;;;;;4989522;28;20289;-73
2022/08/10 04:43:54;;;;;;;7.00;4.43;;;16.00;99.90;;;;;;4987056;28;20216;-73
2022/08/10 04:46:38;;;;;;;5.27;4.13;;;16.00;99.90;;;;;;4987643;28;20207;-73
2022/08/10 04:49:22;;;;;;;7.03;4.40;;;16.00;99.90;;;;;;4995858;28;20232;-73
2022/08/10 04:52:06;;;;;;;5.47;4.47;;;16.00;99.90;;;;;;4989315;28;20220;-74
2022/08/10 04:54:50;;;;;;;9.53;5.27;;;16.00;99.90;;;;;;5000707;28;20196;-74
2022/08/10 04:57:34;;;;;;;7.90;4.37;;;16.00;99.90;;;;;;4985806;28;20239;-73
2022/08/10 05:00:18;;;;;;;4.57;4.17;;;16.00;99.90;;;;;;4985065;28;20763;-72
2022/08/10 05:03:02;;;;;;;5.97;3.57;;;16.00;99.90;;;;;;4989520;28;20200;-73
2022/08/10 05:05:46;;;;;;;7.47;4.23;;;16.10;99.90;;;;;;4986366;28;20224;-74
2022/08/10 05:08:30;;;;;;;4.57;3.87;;;16.10;99.90;;;;;;4984521;28;20608;-74
2022/08/10 05:11:14;;;;;;;4.77;4.07;;;16.20;99.90;;;;;;5000138;28;20254;-74
2022/08/10 05:13:58;;;;;;;3.63;3.33;;;16.20;99.90;;;;;;4990087;28;20273;-73
2022/08/10 05:16:42;;;;;;;4.57;3.63;;;16.30;99.90;;;;;;5001190;28;20216;-75
2022/08/10 05:19:26;;;;;;;5.10;3.87;;;16.30;99.90;;;;;;5003511;28;20251;-73
2022/08/10 05:22:10;;;;;;;6.70;4.07;;;16.20;99.90;;;;;;4989230;28;20203;-73
2022/08/10 05:24:55;;;;;;;4.87;4.10;;;16.30;99.90;;;;;;4989641;28;20188;-74
2022/08/10 05:27:40;;;;;;;5.67;3.70;;;16.30;99.90;;;;;;5010288;28;20215;-74
2022/08/10 05:30:24;;;;;;;5.87;3.50;;;16.40;99.90;;;;;;5002493;28;20220;-76
2022/08/10 05:33:08;;;;;;;4.30;3.90;;;16.40;99.90;;;;;;5008710;28;20184;-74
2022/08/10 05:35:52;;;;;;;5.87;4.13;;;16.40;99.90;;;;;;4992853;28;20299;-75
2022/08/10 05:38:36;;;;;;;5.93;4.43;;;16.50;99.90;;;;;;4991951;28;20775;-75
2022/08/10 05:41:21;;;;;;;5.60;4.27;;;16.60;99.90;;;;;;4984870;28;20278;-74
2022/08/10 05:44:05;;;;;;;5.43;4.10;;;16.60;99.90;;;;;;4991707;28;20204;-74
2022/08/10 05:46:50;;;;;;;9.43;4.17;;;16.60;99.90;;;;;;4992986;28;20196;-74
2022/08/10 05:49:34;;;;;;;8.93;4.40;;;16.60;99.90;;;;;;5002818;28;20551;-76
2022/08/10 05:52:19;;;;;;;4.80;4.00;;;16.70;99.90;;;;;;5005724;28;20242;-75
2022/08/10 05:55:03;;;;;;;6.40;4.30;;;16.80;99.90;;;;;;4984665;28;20224;-75
2022/08/10 05:57:48;;;;;;;4.27;3.30;;;16.90;99.90;;;;;;5007351;28;20207;-77
2022/08/10 06:00:35;;;;;;;6.70;4.00;;;17.00;99.90;;;;;;4990811;28;20208;-75
2022/08/10 06:03:28;;;;;;;10.93;4.00;;;17.00;99.90;;;;;;4992807;28;20236;-75
2022/08/10 06:06:16;;;;;;;4.40;3.47;;;17.00;99.90;;;;;;4990939;28;20176;-75
2022/08/10 06:09:01;;;;;;;4.50;4.07;;;17.00;99.90;;;;;;4986263;28;20207;-75
2022/08/10 06:11:48;;;;;;;4.63;3.77;;;17.10;99.90;;;;;;4989817;28;20290;-77
2022/08/10 06:17:38;;;;;;;5.77;3.70;;;17.10;99.90;;;;;;5009122;28;20207;-75
2022/08/10 06:20:23;;;;;;;5.50;3.60;;;17.20;99.90;;;;;;5000056;28;20283;-76
2022/08/10 06:23:08;;;;;;;4.80;3.53;;;17.20;99.90;;;;;;4987318;28;20304;-75
2022/08/10 06:25:53;;;;;;;3.43;3.13;;;17.30;99.90;;;;;;4987454;28;20671;-76
2022/08/10 06:28:42;;;;;;;9.70;3.30;;;17.40;99.90;;;;;;4990606;28;20244;-78
2022/08/10 06:31:28;;;;;;;6.13;2.80;;;17.40;99.90;;;;;;4989148;28;20664;-75
2022/08/10 06:34:14;;;;;;;6.73;3.20;;;17.50;99.90;;;;;;4993887;28;20683;-76
2022/08/10 06:37:02;;;;;;;4.97;3.50;;;17.60;99.90;;;;;;4983961;28;20227;-76
2022/08/10 06:39:47;;;;;;;4.53;3.20;;;17.70;99.90;;;;;;4990159;28;20196;-78
2022/08/10 06:42:36;;;;;;;4.87;3.33;;;17.80;99.90;;;;;;4993722;28;20222;-74
2022/08/10 06:45:26;;;;;;;5.27;3.27;;;17.80;99.90;;;;;;4989157;28;20341;-76
2022/08/10 06:48:33;;;;;;;7.27;3.33;;;17.90;99.90;;;;;;5006004;28;20539;-74
2022/08/10 06:51:23;;;;;;;6.70;3.37;;;18.00;99.90;;;;;;4992001;28;20711;-75
2022/08/10 06:54:13;;;;;;;5.40;3.40;;;18.00;99.90;;;;;;5005709;28;20873;-75
2022/08/10 06:56:58;;;;;;;3.73;3.20;;;18.10;99.90;;;;;;4994090;28;20304;-76
2022/08/10 06:59:49;;;;;;;4.90;3.73;;;18.20;99.90;;;;;;4986248;28;20247;-75
2022/08/10 07:02:50;;;;;;;5.70;4.00;;;18.20;99.90;;;;;;5012041;28;20228;-77
2022/08/10 07:05:39;;;;;;;4.03;3.63;;;18.20;99.90;;;;;;4996560;28;20675;-76
2022/08/10 07:08:25;;;;;;;5.97;3.83;;;18.20;99.90;;;;;;5007445;28;20196;-76
2022/08/10 07:11:11;;;;;;;5.30;3.67;;;18.30;99.90;;;;;;5005086;28;20266;-77
2022/08/10 07:13:58;;;;;;;5.35;3.75;;;18.40;99.90;;;;;;4990838;28;20176;-77
2022/08/10 07:16:44;;;;;;;4.20;3.40;;;18.40;99.90;;;;;;4990227;28;20224;-76
2022/08/10 07:19:31;;;;;;;5.07;3.47;;;18.50;99.90;;;;;;4980140;28;20231;-78
2022/08/10 07:22:17;;;;;;;5.75;3.65;;;18.50;99.90;;;;;;4987884;28;20219;-76
2022/08/10 07:25:03;;;;;;;7.00;3.80;;;18.60;99.90;;;;;;4989742;28;20232;-76
2022/08/10 07:27:48;;;;;;;9.32;3.70;;;18.70;99.90;;;;;;4999433;28;20200;-77
2022/08/10 07:30:37;;;;;;;4.90;3.50;;;18.80;99.90;;;;;;4985407;28;20319;-75
2022/08/10 07:33:21;;;;;;;7.05;4.03;;;18.90;99.90;;;;;;4991180;28;20266;-76
2022/08/10 07:36:07;;;;;;;4.25;3.67;;;19.00;99.90;;;;;;5004387;28;20208;-76
2022/08/10 07:38:53;;;;;;;10.13;3.88;;;19.00;99.90;;;;;;5003165;28;20200;-77
2022/08/10 07:41:40;;;;;;;7.47;4.07;;;19.10;99.90;;;;;;5000558;28;20219;-76
2022/08/10 07:44:27;;;;;;;5.40;3.65;;;19.10;99.90;;;;;;4986397;28;20228;-76
2022/08/10 07:47:38;;;;;;;9.13;4.15;;;19.10;99.90;;;;;;4986608;28;20223;-77
2022/08/10 07:50:25;;;;;;;5.63;4.00;;;19.10;99.90;;;;;;4989885;28;20292;-77
2022/08/10 07:53:20;;;;;;;8.40;3.80;;;19.20;99.90;;;;;;5000678;28;20199;-77
2022/08/10 07:56:06;;;;;;;5.63;3.70;;;19.30;99.90;;;;;;5002035;28;20208;-78
2022/08/10 07:58:56;;;;;;;7.00;3.90;;;19.40;99.90;;;;;;4991494;28;20192;-77
2022/08/10 08:01:49;;;;;;;10.85;3.88;;;19.40;99.90;;;;;;4981630;28;20215;-77
2022/08/10 08:04:34;;;;;;;5.97;3.50;;;19.50;99.90;;;;;;4990986;28;20215;-78
2022/08/10 08:07:19;;;;;;;6.32;3.35;;;19.70;99.90;;;;;;4982395;28;20204;-78
2022/08/10 08:10:06;;;;;;;5.40;3.40;;;19.70;99.90;;;;;;4986164;28;20298;-77
2022/08/10 08:12:51;;;;;;;6.10;3.47;;;19.80;99.90;;;;;;4988870;28;20204;-77
2022/08/10 08:15:36;;;;;;;4.30;3.00;;;19.80;99.90;;;;;;5002289;28;20203;-77
2022/08/10 08:18:22;;;;;;;4.65;2.90;;;19.90;99.90;;;;;;4987398;28;20699;-77
2022/08/10 08:21:06;;;;;;;4.82;2.95;;;20.00;99.90;;;;;;5000263;28;20784;-78
2022/08/10 08:23:51;;;;;;;5.03;2.90;;;20.10;99.90;;;;;;4988576;28;20580;-78
2022/08/10 08:26:36;;;;;;;4.60;2.65;;;20.20;99.90;;;;;;5000129;28;20231;-76
2022/08/10 08:29:21;;;;;;;5.18;2.63;;;20.30;99.90;;;;;;5009713;28;20234;-78
2022/08/10 08:32:06;;;;;;;5.63;2.88;;;20.40;99.90;;;;;;4999267;28;20212;-77
2022/08/10 08:34:57;;;;;;;3.53;2.90;;;20.50;99.90;;;;;;4995109;28;20712;-77
2022/08/10 08:37:44;;;;;;;6.72;2.17;;;20.60;99.90;;;;;;4991600;28;20246;-79
2022/08/10 08:40:33;;;;;;;4.13;2.38;;;20.70;99.90;;;;;;4981578;28;20218;-78
2022/08/10 08:44:04;;;;;;;5.45;2.05;;;20.90;99.90;;;;;;4993231;28;20293;-77
2022/08/10 08:47:19;;;;;;;4.03;2.35;;;20.90;99.90;;;;;;5004057;28;20709;-78
2022/08/10 08:50:22;;;;;;;3.22;2.60;;;21.00;99.90;;;;;;5001565;28;20223;-79
2022/08/10 08:53:57;;;;;;;4.00;2.45;;;21.10;99.90;;;;;;5006771;28;20215;-79
2022/08/10 08:57:03;;;;;;;3.03;2.67;;;21.30;99.90;;;;;;4947947;28;20240;-78
2022/08/10 09:00:09;;;;;;;7.22;2.53;;;21.30;99.90;;;;;;4936505;28;20542;-80
2022/08/10 09:03:20;;;;;;;3.70;1.92;;;21.40;99.90;;;;;;5005138;28;20280;-78
2022/08/10 09:06:44;;;;;;;5.47;2.47;;;21.50;99.90;;;;;;4989204;28;20186;-77
2022/08/10 09:09:59;;;;;;;3.53;2.45;;;21.60;99.90;;;;;;4992947;28;20220;-76
2022/08/10 09:13:13;;;;;;;6.32;2.40;;;21.70;99.90;;;;;;5002580;28;20296;-79
2022/08/10 09:16:42;;;;;;;6.43;2.47;;;21.80;99.90;;;;;;5010112;28;20191;-76
2022/08/10 09:19:37;;;;;;;4.78;1.92;;;21.90;99.90;;;;;;4998304;28;20254;-78
2022/08/10 09:22:43;;;;;;;4.47;2.00;;;22.00;99.90;;;;;;4998072;28;20188;-79
2022/08/10 09:25:36;;;;;;;3.63;1.77;;;22.10;99.90;;;;;;4991723;28;20238;-79
2022/08/10 09:28:26;;;;;;;4.13;2.30;;;22.10;99.90;;;;;;5009506;28;20187;-80
2022/08/10 09:31:11;;;;;;;2.60;2.05;;;22.20;99.90;;;;;;4991097;28;20351;-80
2022/08/10 09:34:10;;;;;;;2.10;1.65;;;22.30;99.90;;;;;;4993234;28;20215;-78
2022/08/10 09:37:07;;;;;;;3.80;2.03;;;22.40;99.90;;;;;;4999719;28;20216;-77
2022/08/10 09:39:58;;;;;;;5.95;1.98;;;22.50;99.90;;;;;;5006550;28;20327;-81
2022/08/10 09:42:55;;;;;;;2.53;1.58;;;22.60;99.90;;;;;;5004617;28;20211;-81
2022/08/10 09:46:12;;;;;;;2.00;1.40;;;22.70;99.90;;;;;;5008195;28;20259;-80
2022/08/10 09:49:03;;;;;;;3.33;1.75;;;22.80;99.90;;;;;;4992539;28;20203;-79
2022/08/10 09:51:50;;;;;;;2.00;1.50;;;22.90;99.90;;;;;;4990693;28;20329;-79
2022/08/10 09:54:41;;;;;;;5.35;1.80;;;22.90;99.90;;;;;;5009593;28;20195;-78
2022/08/10 09:57:47;;;;;;;4.03;1.70;;;22.90;99.90;;;;;;4988717;28;20215;-79
2022/08/10 10:00:39;;;;;;;2.30;1.40;;;23.10;99.90;;;;;;5012133;28;20216;-79
2022/08/10 10:03:30;;;;;;;8.80;1.35;;;23.20;99.90;;;;;;5007228;28;20200;-79
2022/08/10 10:06:27;;;;;;;1.92;1.52;;;23.20;99.90;;;;;;4992328;28;20188;-79
2022/08/10 10:09:31;;;;;;;2.13;1.50;;;23.30;99.90;;;;;;5008710;28;20220;-80
2022/08/10 10:12:31;;;;;;;5.40;2.17;;;23.30;99.90;;;;;;4995466;28;20237;-79
2022/08/10 10:15:36;;;;;;;2.42;1.60;;;23.20;99.90;;;;;;5005946;28;20196;-78
2022/08/10 10:18:33;;;;;;;3.55;1.63;;;23.20;99.90;;;;;;4986677;28;20720;-77
2022/08/10 10:21:27;;;;;;;2.63;1.50;;;23.40;99.90;;;;;;4992215;28;20212;-78
2022/08/10 10:24:15;;;;;;;2.47;1.45;;;23.40;99.90;;;;;;4991993;28;20280;-81
2022/08/10 10:27:10;;;;;;;3.45;1.58;;;23.50;99.90;;;;;;4992652;28;20717;-78
2022/08/10 10:30:10;;;;;;;2.53;1.27;;;23.60;99.90;;;;;;4992410;28;20207;-78
2022/08/10 10:33:11;;;;;;;1.67;1.42;;;23.70;99.90;;;;;;4991454;28;20220;-78
2022/08/10 10:35:58;;;;;;;4.55;1.45;;;23.70;99.90;;;;;;4991324;28;20196;-78
2022/08/10 10:38:44;;;;;;;2.47;1.48;;;23.80;99.90;;;;;;4990418;28;20204;-78
2022/08/10 10:42:01;;;;;;;1.50;1.40;;;23.80;99.90;;;;;;5005757;28;20731;-79
2022/08/10 10:45:09;;;;;;;2.00;1.10;;;23.80;99.90;;;;;;5008351;28;20195;-79
2022/08/10 10:48:15;;;;;;;1.95;1.13;;;24.00;99.90;;;;;;4992812;28;20215;-82
2022/08/10 10:51:15;;;;;;;2.42;1.52;;;24.10;99.90;;;;;;5009369;28;20227;-78
2022/08/10 10:54:24;;;;;;;1.75;1.25;;;24.20;99.90;;;;;;4997067;28;20278;-80
2022/08/10 10:57:52;;;;;;;2.17;1.60;;;24.20;99.90;;;;;;4994302;28;20274;-81
2022/08/10 11:01:02;;;;;;;3.72;1.67;;;24.10;99.90;;;;;;5011509;28;20210;-79
2022/08/10 11:03:49;;;;;;;2.72;1.20;;;24.30;99.90;;;;;;5009619;28;20299;-79
2022/08/10 11:07:10;;;;;;;6.80;1.23;;;24.30;99.90;;;;;;5007275;28;20759;-79
2022/08/10 11:09:58;;;;;;;2.80;1.40;;;24.40;99.90;;;;;;4987453;28;20588;-78
2022/08/10 11:13:01;;;;;;;3.28;1.23;;;24.40;99.90;;;;;;4987267;28;20263;-79
2022/08/10 11:15:56;;;;;;;3.22;1.30;;;24.40;99.90;;;;;;4994598;28;20278;-79
2022/08/10 11:18:55;;;;;;;2.30;1.20;;;24.60;99.90;;;;;;5007975;28;20216;-78
2022/08/10 11:22:02;;;;;;;1.95;1.50;;;24.50;99.90;;;;;;4989441;28;20235;-77
2022/08/10 11:25:08;;;;;;;2.38;1.25;;;24.60;99.90;;;;;;4989523;28;20182;-80
2022/08/10 11:28:07;;;;;;;2.53;1.20;;;24.70;99.90;;;;;;4987565;28;20223;-77
2022/08/10 11:31:12;;;;;;;1.88;1.25;;;24.80;99.90;;;;;;4986040;28;20216;-77
2022/08/10 11:34:02;;;;;;;3.75;1.15;;;24.80;99.90;;;;;;5004352;28;20183;-78
2022/08/10 11:37:04;;;;;;;2.72;1.10;;;24.90;99.90;;;;;;5003449;28;20230;-80
2022/08/10 11:40:05;;;;;;;2.58;1.33;;;25.00;99.90;;;;;;4986334;28;20199;-81
2022/08/10 11:43:09;;;;;;;3.13;1.23;;;25.10;99.90;;;;;;4996039;28;20211;-79
2022/08/10 11:46:10;;;;;;;2.75;1.38;;;25.20;99.90;;;;;;4991029;28;20215;-77
2022/08/10 11:49:30;;;;;;;2.30;1.40;;;25.20;99.90;;;;;;4982231;28;20416;-78
2022/08/10 11:52:25;;;;;;;4.18;1.35;;;25.20;99.90;;;;;;4990100;28;20409;-79
2022/08/10 11:55:18;;;;;;;4.27;1.20;;;25.20;99.90;;;;;;5000873;28;20420;-78
2022/08/10 12:01:14;;;;;;;2.65;1.30;;;25.40;99.90;;;;;;4997454;28;20407;-80
2022/08/10 12:04:06;;;;;;;2.55;1.10;;;25.40;99.90;;;;;;5005401;28;20246;-77
2022/08/10 12:06:52;;;;;;;2.13;1.10;;;25.60;99.90;;;;;;4986152;28;20276;-80
2022/08/10 12:09:37;;;;;;;3.72;1.50;;;25.50;99.90;;;;;;4987140;28;20192;-77
2022/08/10 12:12:23;;;;;;;2.65;1.02;;;25.50;99.90;;;;;;4991836;28;20191;-79
2022/08/10 12:15:14;;;;;;;1.42;1.10;;;25.50;99.90;;;;;;4985397;28;20199;-78
2022/08/10 12:18:03;;;;;;;1.85;0.90;;;25.50;99.90;;;;;;4991075;28;20239;-79
2022/08/10 12:20:52;;;;;;;3.40;1.08;;;25.60;99.90;;;;;;5001499;28;20314;-77
2022/08/10 12:23:49;;;;;;;3.88;1.35;;;25.60;99.90;;;;;;4992495;28;20203;-79
2022/08/10 12:26:41;;;;;;;1.73;1.33;;;25.60;99.90;;;;;;4981857;28;20200;-76
2022/08/10 12:30:03;;;;;;;3.08;0.90;;;25.70;99.90;;;;;;4983178;28;20188;-78
2022/08/10 12:33:00;;;;;;;3.63;0.93;;;25.70;99.90;;;;;;4963920;28;20459;-77
2022/08/10 12:36:02;;;;;;;1.23;1.10;;;25.70;99.90;;;;;;4994338;28;20211;-78
2022/08/10 12:39:05;;;;;;;2.63;0.80;;;25.80;99.90;;;;;;5000032;28;20756;-77
2022/08/10 12:42:11;;;;;;;1.42;1.05;;;25.80;99.90;;;;;;4983005;28;20215;-78
2022/08/10 12:45:13;;;;;;;1.40;1.10;;;25.80;99.90;;;;;;4983159;28;20226;-79
2022/08/10 12:48:18;;;;;;;1.42;1.05;;;25.90;99.90;;;;;;5004477;28;20224;-78
2022/08/10 12:51:27;;;;;;;3.78;1.20;;;26.10;99.90;;;;;;5004324;28;20239;-78
2022/08/10 12:54:17;;;;;;;1.98;1.17;;;26.20;99.90;;;;;;4990527;28;20234;-80
2022/08/10 12:57:10;;;;;;;1.25;1.15;;;26.30;99.90;;;;;;4984910;28;20210;-77
2022/08/10 12:59:57;;;;;;;2.13;1.20;;;26.20;99.90;;;;;;5005889;28;20286;-78
2022/08/10 13:02:45;;;;;;;2.30;1.10;;;26.10;99.90;;;;;;5002809;28;20293;-80
2022/08/10 13:05:31;;;;;;;1.77;1.13;;;26.10;99.90;;;;;;4992530;28;20195;-78
2022/08/10 13:11:24;;;;;;;1.60;1.00;;;26.10;99.90;;;;;;5007574;28;20244;-79
2022/08/10 13:14:14;;;;;;;1.67;1.00;;;26.20;99.90;;;;;;4987775;28;20326;-79
2022/08/10 13:17:01;;;;;;;1.83;1.20;;;26.20;99.90;;;;;;4991328;28;20259;-76
2022/08/10 13:19:46;;;;;;;2.25;1.13;;;26.10;99.90;;;;;;4989668;28;20192;-78
2022/08/10 13:22:33;;;;;;;4.13;1.10;;;26.20;99.90;;;;;;5003570;28;20191;-80
2022/08/10 13:25:35;;;;;;;1.65;1.30;;;26.20;99.90;;;;;;4984035;28;20199;-78
2022/08/10 13:28:42;;;;;;;4.80;1.25;;;26.20;99.90;;;;;;4986194;28;20663;-80
2022/08/10 13:31:29;;;;;;;3.22;1.30;;;26.20;99.90;;;;;;4983746;28;20307;-77
2022/08/10 13:34:24;;;;;;;3.33;1.10;;;26.20;99.90;;;;;;5001006;28;20192;-78
2022/08/10 13:37:14;;;;;;;6.25;1.40;;;26.30;99.90;;;;;;5006121;28;20263;-80
2022/08/10 13:40:00;;;;;;;2.58;1.50;;;26.30;99.90;;;;;;5008475;28;20223;-78
2022/08/10 13:42:46;;;;;;;3.28;1.25;;;26.30;99.90;;;;;;5007716;28;20255;-79
2022/08/10 13:45:31;;;;;;;1.20;1.10;;;26.30;99.90;;;;;;5010021;28;20244;-78
2022/08/10 13:48:20;;;;;;;3.35;1.50;;;26.40;99.90;;;;;;5007021;28;20314;-81
2022/08/10 13:51:06;;;;;;;1.52;1.42;;;26.50;99.90;;;;;;4997446;28;20222;-78
2022/08/10 13:53:52;;;;;;;1.90;1.40;;;26.50;99.90;;;;;;4992906;28;20192;-78
2022/08/10 13:56:45;;;;;;;4.15;1.70;;;26.60;99.90;;;;;;4993702;28;20280;-78
2022/08/10 13:59:31;;;;;;;3.35;1.50;;;26.60;99.90;;;;;;4991599;28;20243;-78
2022/08/10 14:02:25;;;;;;;1.42;1.17;;;26.70;99.90;;;;;;5006823;28;20187;-80
2022/08/10 14:05:10;;;;;;;1.63;1.35;;;26.80;99.90;;;;;;5006254;28;20320;-78
2022/08/10 14:07:56;;;;;;;1.77;1.30;;;26.80;99.90;;;;;;4995421;28;20195;-78
2022/08/10 14:10:42;;;;;;;3.10;1.50;;;26.90;99.90;;;;;;4993103;28;20263;-78
2022/08/10 14:13:28;;;;;;;2.80;1.02;;;27.00;99.90;;;;;;4989241;28;20290;-78
2022/08/10 14:16:14;;;;;;;1.40;1.30;;;26.90;99.90;;;;;;4992074;28;20191;-78
2022/08/10 14:19:02;;;;;;;6.72;1.30;;;26.90;99.90;;;;;;4993019;28;20259;-79
2022/08/10 14:21:46;;;;;;;4.38;1.60;;;27.00;99.90;;;;;;5002649;28;20591;-79
2022/08/10 14:24:31;;;;;;;4.07;1.30;;;26.90;99.90;;;;;;5008768;28;20266;-78
2022/08/10 14:27:17;;;;;;;2.80;1.45;;;26.90;99.90;;;;;;5004475;28;20188;-79
2022/08/10 14:30:03;;;;;;;3.30;1.23;;;27.00;99.90;;;;;;5004391;28;20282;-81
2022/08/10 14:32:51;;;;;;;1.55;1.30;;;27.00;99.90;;;;;;5008598;28;20223;-79
2022/08/10 14:35:40;;;;;;;2.45;1.45;;;27.00;99.90;;;;;;5004665;28;20235;-79
2022/08/10 14:38:30;;;;;;;1.13;1.02;;;27.00;99.90;;;;;;4987461;28;20216;-79
2022/08/10 14:41:28;;;;;;;2.78;1.35;;;27.00;99.90;;;;;;4993413;28;20219;-79
2022/08/10 14:44:14;;;;;;;2.63;1.20;;;27.10;99.90;;;;;;5005053;28;20656;-81
2022/08/10 14:47:02;;;;;;;2.47;1.40;;;27.10;99.90;;;;;;5006255;28;20200;-77
2022/08/10 14:49:48;;;;;;;1.20;1.10;;;27.10;99.90;;;;;;4990422;28;20250;-80
2022/08/10 14:52:40;;;;;;;1.25;1.10;;;27.00;99.90;;;;;;5004206;28;20312;-80
2022/08/10 14:55:25;;;;;;;4.05;1.58;;;27.10;99.90;;;;;;4989269;28;20191;-78
2022/08/10 14:58:10;;;;;;;5.38;1.27;;;27.10;99.90;;;;;;5003139;28;20263;-79
2022/08/10 15:00:55;;;;;;;3.00;1.40;;;27.10;99.90;;;;;;5002900;28;20270;-81